Terminal Aerodrome Forecast
Issued by NWS Nashville, TN

Home | Current Version | Previous Version | Text Only | Print | Product List | Glossary On
Versions: 1 2 3 4 5 6 7 8 9 10 11 12 13 14 15 16 17 18 19 20 21 22 23
133
FTUS44 KOHX 220520
TAFCSV
TAF
KCSV 220520Z 2206/2306 00000KT 6SM BR OVC110
     FM220800 12004KT 4SM -RA BR OVC025
     FM221000 11003KT 3SM -RA BR OVC015
     FM221700 11004KT 6SM BR VCSH OVC025=

USA.gov is the U.S. government's official web portal to all federal, state and local government web resources and services.